Galesburg, IL (61401)

2:56 PM CDT on July 26, 2016 (GMT -0500)
N9VPV | | Change Station

Elev 777 ft 40.95 °N, 90.39 °W | Updated 32 seconds ago

Overcast
Overcast
85.4 °F
Feels Like 87 °F
N
2.0
Wind Variable Wind from NNE
Gusts 4.0 mph

Today
High -- | Low -- °F
--% Chance of Precip.
Yesterday
High -- | Low -- °F
Precip. -- in
Pressure 30.04 in
Visibility 10.0 miles
Clouds Mostly Cloudy 4700 ft
Overcast 6000 ft
Heat Index 87 °F
Dew Point 65 °F
Humidity 51%
Rainfall 0.00 in
Snow Depth Not available.
5:52 AM 8:23 PM
Waning Gibbous, 51% visible
METAR KGBG 261935Z AUTO 30003KT 10SM BKN047 OVC060 29/19 A3004 RMK AO2 T02850188
Pressure 30.04 in
Visibility 10.0 miles
Clouds Mostly Cloudy 4700 ft
Overcast 6000 ft
Heat Index 87 °F
Dew Point 65 °F
Humidity 51%
Rainfall 0.00 in
Snow Depth Not available.
5:52 AM 8:23 PM
Waning Gibbous, 51% visible
METAR KGBG 261935Z AUTO 30003KT 10SM BKN047 OVC060 29/19 A3004 RMK AO2 T02850188

10-Day Weather Forecast

Almanac

Astronomy

Jul. 26, 2016 Rise Set
Actual Time
Civil Twilight
Nautical Twilight
Astronomical Twilight
Moon
Length of Visible Light
Length of Day
Tomorrow will be .
, % of the Moon is Illuminated

Today's Extremes

State Highs State Lows

Community

WunderPhotos

Upload Photos

1,927,667 photos uploaded!

WunderBlog® & News

Nearby

Air Quality

  Air Quality AQ Index Pollutant
Not available.

Snow Depth

Station Depth Elevation

Earthquake Activity

City Distance Mag. Time & Date
Minimum magnitude displayed is 2.5.

Coastal Water Temperatures

Place Temperature

Stations

Nearby Weather Stations

Station Location Temp. Windchill Dew Point Humidity Wind Precip. Elev Updated Type
                   

Watches & Warnings

There are currently no watches in effect.